createdAt,value
2018-01-15T00:02:02.752Z,-3.90
2018-01-15T00:04:31.407Z,-3.83
2018-01-15T00:06:59.731Z,-3.72
2018-01-15T00:09:28.193Z,-3.56
2018-01-15T00:11:57.073Z,-3.52
2018-01-15T00:14:26.152Z,-3.48
2018-01-15T00:16:54.515Z,-3.44
2018-01-15T00:19:22.832Z,-3.47
2018-01-15T00:21:51.147Z,-3.49
2018-01-15T00:24:19.499Z,-3.47
2018-01-15T00:26:47.815Z,-3.57
2018-01-15T00:29:16.741Z,-3.52
2018-01-15T00:31:45.635Z,-3.44
2018-01-15T00:34:13.971Z,-3.39
2018-01-15T00:36:42.508Z,-3.40
2018-01-15T00:39:11.254Z,-3.54
2018-01-15T00:41:39.571Z,-3.73
2018-01-15T00:44:07.879Z,-3.91
2018-01-15T00:46:36.253Z,-3.99
2018-01-15T00:49:05.175Z,-4.13
2018-01-15T00:51:34.096Z,-4.06
2018-01-15T00:54:02.444Z,-4.00
2018-01-15T00:56:30.779Z,-4.01
2018-01-15T00:58:59.096Z,-3.98
2018-01-15T01:01:27.435Z,-4.00
2018-01-15T01:03:55.751Z,-4.01
2018-01-15T01:06:24.764Z,-4.00
2018-01-15T01:08:53.671Z,-4.04
2018-01-15T01:11:21.994Z,-4.05
2018-01-15T01:13:50.372Z,-4.09
2018-01-15T01:16:21.763Z,-4.17
2018-01-15T01:18:51.407Z,-4.11
2018-01-15T01:21:19.782Z,-3.91
2018-01-15T01:23:48.148Z,-3.86
2018-01-15T01:26:18.594Z,-3.89
2018-01-15T01:28:46.903Z,-3.97
2018-01-15T01:31:15.919Z,-4.12
2018-01-15T01:33:44.238Z,-4.02
2018-01-15T01:36:12.552Z,-4.14
2018-01-15T01:38:40.923Z,-4.28
2018-01-15T01:41:09.236Z,-4.34
2018-01-15T01:43:37.551Z,-4.39
2018-01-15T01:46:06.164Z,-4.18
2018-01-15T01:48:35.211Z,-4.09
2018-01-15T01:51:04.288Z,-4.12
2018-01-15T01:53:32.647Z,-4.05
2018-01-15T01:56:00.966Z,-4.07
2018-01-15T01:58:29.280Z,-4.07
2018-01-15T02:00:57.647Z,-4.01
2018-01-15T02:03:25.962Z,-4.00
2018-01-15T02:05:54.276Z,-4.08
2018-01-15T02:08:22.615Z,-4.14
2018-01-15T02:10:50.939Z,-4.17
2018-01-15T02:13:20.118Z,-4.13
2018-01-15T02:15:48.420Z,-4.00
2018-01-15T02:18:16.764Z,-3.99
2018-01-15T02:20:46.059Z,-4.04
2018-01-15T02:23:14.770Z,-4.05
2018-01-15T02:25:43.400Z,-4.14
2018-01-15T02:28:12.478Z,-4.18
2018-01-15T02:30:41.144Z,-4.12
2018-01-15T02:33:09.456Z,-4.18
2018-01-15T02:35:37.796Z,-4.23
2018-01-15T02:38:07.512Z,-4.19
2018-01-15T02:40:36.484Z,-4.22
2018-01-15T02:43:04.812Z,-4.27
2018-01-15T02:45:33.129Z,-4.39
2018-01-15T02:48:01.507Z,-4.44
2018-01-15T02:50:29.828Z,-4.50
2018-01-15T02:52:58.146Z,-4.40
2018-01-15T02:55:26.777Z,-4.40
2018-01-15T02:57:55.086Z,-4.57
2018-01-15T03:00:23.600Z,-4.57
2018-01-15T03:02:52.559Z,-4.61
2018-01-15T03:05:21.047Z,-4.68
2018-01-15T03:07:49.512Z,-4.69
2018-01-15T03:10:18.104Z,-4.66
2018-01-15T03:12:46.644Z,-4.58
2018-01-15T03:15:16.457Z,-4.56
2018-01-15T03:17:45.223Z,-4.26
2018-01-15T03:20:15.421Z,-4.36
2018-01-15T03:22:44.184Z,-4.41
2018-01-15T03:25:12.910Z,-4.42
2018-01-15T03:27:42.326Z,-4.40
2018-01-15T03:30:11.279Z,-4.32
2018-01-15T03:32:39.667Z,-4.17
2018-01-15T03:35:07.979Z,-4.04
2018-01-15T03:37:36.875Z,-3.93
2018-01-15T03:40:05.243Z,-3.88
2018-01-15T03:42:33.564Z,-3.77
2018-01-15T03:45:01.940Z,-3.65
2018-01-15T03:47:30.280Z,-3.65
2018-01-15T03:49:58.980Z,-3.59
2018-01-15T03:52:28.099Z,-3.46
2018-01-15T03:54:56.427Z,-3.35
2018-01-15T03:57:24.762Z,-3.18
2018-01-15T03:59:53.128Z,-3.15
2018-01-15T04:02:21.504Z,-3.18
2018-01-15T04:04:50.408Z,-3.08
2018-01-15T04:07:19.471Z,-2.99
2018-01-15T04:09:47.797Z,-3.05
2018-01-15T04:12:16.337Z,-2.81
2018-01-15T04:14:44.763Z,-2.49
2018-01-15T04:17:13.079Z,-2.31
2018-01-15T04:19:42.344Z,-2.14
2018-01-15T04:22:10.664Z,-2.04
2018-01-15T04:24:39.742Z,-2.06
2018-01-15T04:27:08.412Z,-2.04
2018-01-15T04:29:36.726Z,-2.23
2018-01-15T04:32:05.815Z,-2.35
2018-01-15T04:34:34.553Z,-2.26
2018-01-15T04:37:02.887Z,-2.14
2018-01-15T04:39:31.219Z,-2.43
2018-01-15T04:41:59.567Z,-2.58
2018-01-15T04:44:27.883Z,-2.62
2018-01-15T04:46:56.412Z,-2.62
2018-01-15T04:49:25.119Z,-2.50
2018-01-15T04:51:53.465Z,-2.29
2018-01-15T04:54:22.568Z,-2.07
2018-01-15T04:56:51.714Z,-1.89
2018-01-15T04:59:20.036Z,-1.87
2018-01-15T05:01:48.353Z,-1.86
2018-01-15T05:04:16.967Z,-1.80
2018-01-15T05:06:45.281Z,-1.76
2018-01-15T05:09:13.655Z,-1.73
2018-01-15T05:11:42.811Z,-1.71
2018-01-15T05:14:11.453Z,-1.67
2018-01-15T05:16:39.843Z,-1.59
2018-01-15T05:19:08.211Z,-1.51
2018-01-15T05:21:37.296Z,-1.56
2018-01-15T05:24:06.383Z,-1.59
2018-01-15T05:26:35.515Z,-1.58
2018-01-15T05:29:03.835Z,-1.55
2018-01-15T05:31:32.161Z,-1.60
2018-01-15T05:34:00.865Z,-1.65
2018-01-15T05:36:29.188Z,-1.65
2018-01-15T05:38:57.516Z,-1.64
2018-01-15T05:41:26.047Z,-1.59
2018-01-15T05:43:55.165Z,-1.56
2018-01-15T05:46:23.843Z,-1.57
2018-01-15T05:48:52.188Z,-1.55
2018-01-15T05:51:20.527Z,-1.67
2018-01-15T05:53:49.132Z,-1.76
2018-01-15T05:56:17.487Z,-1.63
2018-01-15T05:58:45.815Z,-1.55
2018-01-15T06:01:14.196Z,-1.46
2018-01-15T06:03:42.516Z,-1.29
2018-01-15T06:06:11.023Z,-1.32
2018-01-15T06:08:39.935Z,-1.29
2018-01-15T06:11:08.900Z,-1.51
2018-01-15T06:13:37.219Z,-1.30
2018-01-15T06:16:06.431Z,-1.19
2018-01-15T06:18:34.748Z,-1.14
2018-01-15T06:21:03.064Z,-1.17
2018-01-15T06:23:31.752Z,-1.12
2018-01-15T06:26:00.078Z,-1.13
2018-01-15T06:28:28.864Z,-1.16
2018-01-15T06:30:57.227Z,-1.20
2018-01-15T06:33:26.315Z,-1.10
2018-01-15T06:35:55.620Z,-1.07
2018-01-15T06:38:24.751Z,-1.09
2018-01-15T06:40:53.072Z,-1.13
2018-01-15T06:43:21.395Z,-1.12
2018-01-15T06:45:49.867Z,-0.99
2018-01-15T06:48:18.192Z,-0.98
2018-01-15T06:50:46.512Z,-1.05
2018-01-15T06:53:14.851Z,-1.07
2018-01-15T06:55:43.779Z,-1.13
2018-01-15T06:58:12.176Z,-1.17
2018-01-15T07:00:40.499Z,-1.30
2018-01-15T07:03:08.811Z,-1.60
2018-01-15T07:05:37.420Z,-1.84
2018-01-15T07:08:05.740Z,-1.79
2018-01-15T07:10:34.067Z,-1.80
2018-01-15T07:13:02.452Z,-2.07
2018-01-15T07:15:30.780Z,-1.88
2018-01-15T07:17:59.108Z,-1.78
2018-01-15T07:20:27.471Z,-1.85
2018-01-15T07:22:56.559Z,-1.75
2018-01-15T07:25:25.092Z,-1.87
2018-01-15T07:27:55.211Z,-1.88
2018-01-15T07:30:23.596Z,-1.71
2018-01-15T07:32:51.912Z,-1.67
2018-01-15T07:35:21.232Z,-1.55
2018-01-15T07:37:49.706Z,-1.41
2018-01-15T07:40:18.043Z,-1.25
2018-01-15T07:42:46.415Z,-1.09
2018-01-15T07:45:14.731Z,-1.08
2018-01-15T07:47:43.831Z,-1.02
2018-01-15T07:50:13.617Z,-0.96
2018-01-15T07:52:42.411Z,-0.82
2018-01-15T07:55:10.740Z,-0.64
2018-01-15T07:57:39.067Z,-0.53
2018-01-15T08:00:07.692Z,-0.42
2018-01-15T08:02:36.777Z,-0.34
2018-01-15T08:05:05.885Z,-0.18
2018-01-15T08:07:34.608Z,-0.45
2018-01-15T08:10:02.932Z,-0.76
2018-01-15T08:12:31.259Z,-0.86
2018-01-15T08:14:59.620Z,-0.80
2018-01-15T08:17:27.936Z,-0.74
2018-01-15T08:19:56.257Z,-0.59
2018-01-15T08:22:25.132Z,-0.71
2018-01-15T08:24:53.461Z,-0.71
2018-01-15T08:27:21.811Z,-0.67
2018-01-15T08:29:50.503Z,-0.71
2018-01-15T08:32:18.824Z,-0.63
2018-01-15T08:34:47.156Z,-0.50
2018-01-15T08:37:15.659Z,-0.50
2018-01-15T08:39:43.996Z,-0.61
2018-01-15T08:42:13.075Z,-0.43
2018-01-15T08:44:41.463Z,-0.25
2018-01-15T08:47:09.871Z,-0.27
2018-01-15T08:49:38.195Z,-0.20
2018-01-15T08:52:07.694Z,0.01
2018-01-15T08:54:36.024Z,0.13
2018-01-15T08:57:04.364Z,0.34
2018-01-15T08:59:33.481Z,0.39
2018-01-15T09:02:02.569Z,0.29
2018-01-15T09:04:30.907Z,0.33
2018-01-15T09:06:59.259Z,0.50
2018-01-15T09:09:27.583Z,0.69
2018-01-15T09:11:56.527Z,0.96
2018-01-15T09:14:24.972Z,1.11
2018-01-15T09:16:53.313Z,1.36
2018-01-15T09:19:21.936Z,1.55
2018-01-15T09:21:51.011Z,1.63
2018-01-15T09:24:19.835Z,1.67
2018-01-15T09:26:48.223Z,1.91
2018-01-15T09:29:17.446Z,2.31
2018-01-15T09:31:45.823Z,2.98
2018-01-15T09:34:14.180Z,3.74
2018-01-15T09:36:42.815Z,4.01
2018-01-15T09:39:11.120Z,4.04
2018-01-15T09:41:39.444Z,4.01
2018-01-15T09:44:08.048Z,4.01
2018-01-15T09:46:36.359Z,3.69
2018-01-15T09:49:05.347Z,3.56
2018-01-15T09:51:34.023Z,3.47
2018-01-15T09:54:02.352Z,3.57
2018-01-15T09:56:30.651Z,3.54
2018-01-15T09:58:59.023Z,3.73
2018-01-15T10:01:27.372Z,4.05
2018-01-15T10:03:55.676Z,3.84
2018-01-15T10:06:24.026Z,3.68
2018-01-15T10:08:52.860Z,3.99
2018-01-15T10:11:21.167Z,3.93
2018-01-15T10:13:49.624Z,4.05
2018-01-15T10:16:17.923Z,3.83
2018-01-15T10:18:46.228Z,3.85
2018-01-15T10:21:14.572Z,3.79
2018-01-15T10:23:42.875Z,3.98
2018-01-15T10:26:11.208Z,4.09
2018-01-15T10:28:39.936Z,4.33
2018-01-15T10:31:09.019Z,4.53
2018-01-15T10:33:37.484Z,4.68
2018-01-15T10:36:06.484Z,5.04
2018-01-15T10:38:34.788Z,4.91
2018-01-15T10:41:03.098Z,5.19
2018-01-15T10:43:31.452Z,5.36
2018-01-15T10:45:59.845Z,5.50
2018-01-15T10:48:29.051Z,5.54
2018-01-15T10:50:57.816Z,5.47
2018-01-15T10:53:26.914Z,5.58
2018-01-15T10:55:55.267Z,5.77
2018-01-15T10:58:24.068Z,5.70
2018-01-15T11:00:52.944Z,5.79
2018-01-15T11:03:21.296Z,6.07
2018-01-15T11:05:49.596Z,6.07
2018-01-15T11:08:18.399Z,6.29
2018-01-15T11:10:47.391Z,6.48
2018-01-15T11:13:15.695Z,6.37
2018-01-15T11:15:44.000Z,6.48
2018-01-15T11:18:12.594Z,6.17
2018-01-15T11:20:41.072Z,5.98
2018-01-15T11:23:09.499Z,5.67
2018-01-15T11:25:37.807Z,5.80
2018-01-15T11:28:06.695Z,6.03
2018-01-15T11:30:35.567Z,5.88
2018-01-15T11:33:04.164Z,5.59
2018-01-15T11:35:32.467Z,5.70
2018-01-15T11:38:01.192Z,5.74
2018-01-15T11:40:29.615Z,5.44
2018-01-15T11:42:58.190Z,5.59
2018-01-15T11:45:26.614Z,5.39
2018-01-15T11:47:54.999Z,5.44
2018-01-15T11:50:23.716Z,5.53
2018-01-15T11:52:52.196Z,5.61
2018-01-15T11:55:21.267Z,5.76
2018-01-15T11:57:50.254Z,5.91
2018-01-15T12:00:18.611Z,5.97
2018-01-15T12:02:47.636Z,6.13
2018-01-15T12:05:15.959Z,6.34
2018-01-15T12:07:44.512Z,6.38
2018-01-15T12:10:14.065Z,6.29
2018-01-15T12:12:42.467Z,6.28
2018-01-15T12:15:10.763Z,6.20
2018-01-15T12:17:39.080Z,5.99
2018-01-15T12:20:07.467Z,6.03
2018-01-15T12:22:35.924Z,6.27
2018-01-15T12:25:04.692Z,6.41
2018-01-15T12:27:33.053Z,6.44
2018-01-15T12:30:01.366Z,6.37
2018-01-15T12:32:29.683Z,6.40
2018-01-15T12:34:58.031Z,6.35
2018-01-15T12:37:26.335Z,6.34
2018-01-15T12:39:54.636Z,6.23
2018-01-15T12:42:24.492Z,6.56
2018-01-15T12:44:54.778Z,6.81
2018-01-15T12:47:23.109Z,6.56
2018-01-15T12:49:51.415Z,6.71
2018-01-15T12:52:20.040Z,6.73
2018-01-15T12:54:49.121Z,6.39
2018-01-15T12:57:18.223Z,6.33
2018-01-15T12:59:47.351Z,6.34
2018-01-15T13:02:15.651Z,6.76
2018-01-15T13:04:44.719Z,6.97
2018-01-15T13:07:30.925Z,6.99
2018-01-15T13:09:59.227Z,6.90
2018-01-15T13:12:27.535Z,6.72
2018-01-15T13:14:56.671Z,6.88
2018-01-15T13:17:26.123Z,6.46
2018-01-15T13:19:54.500Z,6.35
2018-01-15T13:22:22.807Z,6.51
2018-01-15T13:24:51.147Z,6.32
2018-01-15T13:27:19.451Z,6.40
2018-01-15T13:29:47.840Z,6.26
2018-01-15T13:32:16.716Z,6.35
2018-01-15T13:34:45.088Z,6.48
2018-01-15T13:37:14.092Z,6.71
2018-01-15T13:39:42.447Z,6.85
2018-01-15T13:42:10.871Z,6.79
2018-01-15T13:44:39.170Z,6.69
2018-01-15T13:47:07.970Z,6.69
2018-01-15T13:49:36.272Z,6.75
2018-01-15T13:52:04.817Z,6.59
2018-01-15T13:54:33.152Z,6.49
2018-01-15T13:57:01.464Z,6.29
2018-01-15T13:59:29.767Z,6.22
2018-01-15T14:01:59.407Z,6.10
2018-01-15T14:04:27.707Z,6.23
2018-01-15T14:06:56.342Z,6.32
2018-01-15T14:09:24.699Z,6.41
2018-01-15T14:11:53.009Z,6.40
2018-01-15T14:14:21.760Z,6.59
2018-01-15T14:16:50.788Z,6.79
2018-01-15T14:19:20.536Z,6.71
2018-01-15T14:21:48.854Z,6.60
2018-01-15T14:24:17.228Z,6.55
2018-01-15T14:26:45.535Z,6.64
2018-01-15T14:29:13.843Z,6.70
2018-01-15T14:31:42.201Z,6.77
2018-01-15T14:34:10.508Z,6.77
2018-01-15T14:36:38.887Z,6.83
2018-01-15T14:39:07.247Z,6.72
2018-01-15T14:41:36.319Z,6.53
2018-01-15T14:44:04.674Z,6.31
2018-01-15T14:46:34.218Z,6.10
2018-01-15T14:49:02.527Z,5.85
2018-01-15T14:51:30.835Z,5.63
2018-01-15T14:53:59.456Z,5.56
2018-01-15T14:56:27.832Z,5.54
2018-01-15T14:58:56.515Z,5.53
2018-01-15T15:01:25.107Z,5.39
2018-01-15T15:03:53.418Z,5.27
2018-01-15T15:06:21.728Z,5.22
2018-01-15T15:08:50.083Z,5.23
2018-01-15T15:11:18.640Z,5.06
2018-01-15T15:13:47.452Z,5.10
2018-01-15T15:16:15.988Z,5.13
2018-01-15T15:18:44.305Z,5.05
2018-01-15T15:21:12.619Z,4.91
2018-01-15T15:23:40.967Z,4.81
2018-01-15T15:26:09.266Z,4.82
2018-01-15T15:28:37.567Z,4.75
2018-01-15T15:31:05.919Z,4.77
2018-01-15T15:33:34.223Z,4.77
2018-01-15T15:36:02.531Z,4.74
2018-01-15T15:38:32.151Z,4.74
2018-01-15T15:41:00.544Z,4.74
2018-01-15T15:43:28.850Z,4.62
2018-01-15T15:45:57.766Z,4.55
2018-01-15T15:48:26.096Z,4.48
2018-01-15T15:50:54.415Z,4.17
2018-01-15T15:53:22.763Z,4.24
2018-01-15T15:55:51.502Z,4.23
2018-01-15T15:58:20.009Z,4.19
2018-01-15T16:00:49.113Z,4.28
2018-01-15T16:03:17.410Z,4.17
2018-01-15T16:05:45.715Z,4.04
2018-01-15T16:08:14.094Z,4.01
2018-01-15T16:10:43.083Z,4.03
2018-01-15T16:13:11.409Z,4.23
2018-01-15T16:15:39.797Z,4.22
2018-01-15T16:18:08.113Z,4.30
2018-01-15T16:20:36.963Z,4.38
2018-01-15T16:23:05.315Z,4.42
2018-01-15T16:25:34.388Z,4.45
2018-01-15T16:28:02.691Z,4.36
2018-01-15T16:30:31.420Z,4.08
2018-01-15T16:32:59.724Z,4.09
2018-01-15T16:35:28.203Z,3.95
2018-01-15T16:37:56.887Z,3.85
2018-01-15T16:40:25.333Z,3.92
2018-01-15T16:42:53.649Z,4.03
2018-01-15T16:45:22.251Z,4.07
2018-01-15T16:47:50.551Z,4.13
2018-01-15T16:50:24.275Z,4.15
2018-01-15T16:52:52.579Z,4.35
2018-01-15T16:55:20.887Z,4.59
2018-01-15T16:57:49.925Z,4.67
2018-01-15T17:00:18.382Z,4.58
2018-01-15T17:02:46.697Z,4.46
2018-01-15T17:05:15.711Z,4.43
2018-01-15T17:07:44.016Z,4.47
2018-01-15T17:10:12.323Z,4.45
2018-01-15T17:12:42.025Z,4.54
2018-01-15T17:15:10.395Z,4.65
2018-01-15T17:17:38.719Z,4.78
2018-01-15T17:20:07.726Z,4.76
2018-01-15T17:22:36.039Z,4.81
2018-01-15T17:25:04.339Z,4.86
2018-01-15T17:27:32.690Z,4.81
2018-01-15T17:30:01.009Z,4.82
2018-01-15T17:32:29.315Z,4.95
2018-01-15T17:34:58.303Z,4.99
2018-01-15T17:37:26.675Z,4.92
2018-01-15T17:39:55.179Z,4.94
2018-01-15T17:42:23.764Z,4.90
2018-01-15T17:44:52.727Z,4.89
2018-01-15T17:47:21.323Z,4.94
2018-01-15T17:49:49.716Z,4.98
2018-01-15T17:52:18.040Z,4.99
2018-01-15T17:54:46.735Z,4.67
2018-01-15T17:57:15.051Z,4.66
2018-01-15T17:59:43.350Z,4.69
2018-01-15T18:02:12.075Z,4.83
2018-01-15T18:04:40.385Z,4.91
2018-01-15T18:07:09.353Z,4.96
2018-01-15T18:09:37.719Z,5.03
2018-01-15T18:12:06.584Z,5.04
2018-01-15T18:14:35.179Z,5.00
2018-01-15T18:17:04.069Z,5.13
2018-01-15T18:19:32.384Z,5.32
2018-01-15T18:22:01.339Z,5.38
2018-01-15T18:24:29.875Z,5.39
2018-01-15T18:26:58.309Z,5.39
2018-01-15T18:29:27.671Z,5.32
2018-01-15T18:31:56.734Z,5.23
2018-01-15T18:34:25.960Z,5.18
2018-01-15T18:36:54.263Z,5.18
2018-01-15T18:39:23.342Z,5.18
2018-01-15T18:41:52.428Z,5.19
2018-01-15T18:44:20.739Z,5.16
2018-01-15T18:46:49.043Z,5.09
2018-01-15T18:49:18.064Z,5.17
2018-01-15T18:51:47.019Z,5.24
2018-01-15T18:54:15.323Z,5.20
2018-01-15T18:56:43.760Z,5.11
2018-01-15T18:59:12.528Z,4.92
2018-01-15T19:01:40.827Z,4.69
2018-01-15T19:04:10.179Z,4.75
2018-01-15T19:06:38.484Z,4.73
2018-01-15T19:09:07.308Z,4.59
2018-01-15T19:11:35.827Z,4.72
2018-01-15T19:14:05.237Z,4.73
2018-01-15T19:16:33.995Z,4.66
2018-01-15T19:19:02.606Z,4.73
2018-01-15T19:21:30.917Z,4.76
2018-01-15T19:23:59.223Z,4.78
2018-01-15T19:26:28.784Z,4.79
2018-01-15T19:28:58.067Z,4.75
2018-01-15T19:31:26.969Z,4.67
2018-01-15T19:33:56.058Z,4.62
2018-01-15T19:36:30.367Z,4.65
2018-01-15T19:38:58.789Z,4.68
2018-01-15T19:41:29.371Z,4.71
2018-01-15T19:44:04.549Z,4.72
2018-01-15T19:46:38.259Z,4.68
2018-01-15T19:49:12.016Z,4.66
2018-01-15T19:51:45.711Z,4.75
2018-01-15T19:54:19.975Z,4.70
2018-01-15T19:56:53.751Z,4.73
2018-01-15T19:59:27.564Z,4.76
2018-01-15T20:02:02.192Z,4.76
2018-01-15T20:04:36.047Z,4.70
2018-01-15T20:07:09.935Z,4.64
2018-01-15T20:09:43.983Z,4.59
2018-01-15T20:12:12.768Z,4.64
2018-01-15T20:14:42.099Z,4.67
2018-01-15T20:17:11.908Z,4.52
2018-01-15T20:19:42.103Z,4.56
2018-01-15T20:22:12.453Z,4.52
2018-01-15T20:24:51.931Z,4.52
2018-01-15T20:27:21.866Z,4.47
2018-01-15T20:29:51.754Z,4.40
2018-01-15T20:32:25.788Z,4.43
2018-01-15T20:34:55.731Z,4.42
2018-01-15T20:37:24.955Z,4.43
2018-01-15T20:39:54.673Z,4.48
2018-01-15T20:42:24.669Z,4.44
2018-01-15T20:44:55.387Z,4.48
2018-01-15T20:47:33.803Z,4.51
2018-01-15T20:50:03.313Z,4.47
2018-01-15T20:52:39.006Z,4.52
2018-01-15T20:55:08.946Z,4.53
2018-01-15T20:57:42.629Z,4.55
2018-01-15T21:00:14.113Z,4.48
2018-01-15T21:02:44.246Z,4.54
2018-01-15T21:05:14.262Z,4.58
2018-01-15T21:07:43.279Z,4.47
2018-01-15T21:10:13.191Z,4.52
2018-01-15T21:12:41.645Z,4.56
2018-01-15T21:15:10.023Z,4.65
2018-01-15T21:17:38.980Z,4.68
2018-01-15T21:20:08.274Z,4.64
2018-01-15T21:22:36.630Z,4.72
2018-01-15T21:25:05.007Z,4.70
2018-01-15T21:27:34.872Z,4.86
2018-01-15T21:30:03.583Z,4.87
2018-01-15T21:32:31.940Z,4.91
2018-01-15T21:35:00.279Z,4.98
2018-01-15T21:37:29.637Z,5.03
2018-01-15T21:39:58.759Z,5.05
2018-01-15T21:42:27.838Z,5.13
2018-01-15T21:44:56.599Z,5.11
2018-01-15T21:47:24.896Z,5.13
2018-01-15T21:49:53.237Z,5.15
2018-01-15T21:52:22.939Z,5.24
2018-01-15T21:54:52.183Z,5.22
2018-01-15T21:57:20.528Z,5.24
2018-01-15T21:59:48.931Z,5.35
2018-01-15T22:02:17.227Z,5.36
2018-01-15T22:04:45.895Z,5.33
2018-01-15T22:07:14.265Z,5.29
2018-01-15T22:09:42.607Z,5.30
2018-01-15T22:12:11.486Z,5.33
2018-01-15T22:14:39.872Z,5.24
2018-01-15T22:17:08.284Z,5.27
2018-01-15T22:19:36.625Z,5.24
2018-01-15T22:22:04.968Z,5.31
2018-01-15T22:24:33.987Z,5.40
2018-01-15T22:27:02.384Z,5.41
2018-01-15T22:29:30.727Z,5.43
2018-01-15T22:31:59.065Z,5.46
2018-01-15T22:34:28.129Z,5.48
2018-01-15T22:36:57.240Z,5.40
2018-01-15T22:39:26.872Z,5.35
2018-01-15T22:41:55.966Z,5.33
2018-01-15T22:44:24.855Z,5.35
2018-01-15T22:46:53.369Z,5.39
2018-01-15T22:49:22.248Z,5.35
2018-01-15T22:51:51.475Z,5.37
2018-01-15T22:54:20.343Z,5.43
2018-01-15T22:56:49.672Z,5.43
2018-01-15T22:59:18.445Z,5.46
2018-01-15T23:01:47.860Z,5.51
2018-01-15T23:04:16.159Z,5.52
2018-01-15T23:06:44.520Z,5.57
2018-01-15T23:09:12.844Z,5.51
2018-01-15T23:11:41.454Z,5.54
2018-01-15T23:14:10.047Z,5.55
2018-01-15T23:16:38.432Z,5.54
2018-01-15T23:19:06.726Z,5.52
2018-01-15T23:21:35.068Z,5.48
2018-01-15T23:24:03.428Z,5.59
2018-01-15T23:26:32.075Z,5.58
2018-01-15T23:29:00.437Z,5.55
2018-01-15T23:31:28.744Z,5.59
2018-01-15T23:33:57.051Z,5.57
2018-01-15T23:36:25.634Z,5.55
2018-01-15T23:38:53.932Z,5.48
2018-01-15T23:41:22.823Z,5.63
2018-01-15T23:43:52.412Z,5.58
2018-01-15T23:46:20.721Z,5.64
2018-01-15T23:48:49.028Z,5.67
2018-01-15T23:51:17.391Z,5.70
2018-01-15T23:53:45.723Z,5.75
2018-01-15T23:56:14.027Z,5.77
2018-01-15T23:58:42.942Z,5.74
